Private Wetterstation Sandau
Wetterdaten: Donnerstag, 10.01.2013
Datum Zeit Temp. A. Feuchte A. Luftdruck Regen Wind Richtung Richtung Taupunkt Windchill
10.01.2013 00:01 5,5 C 90 % 1011,1 hPa 0,0 l/m 7,6 km/h (2 Bft) W-NW 292 4,0 C 3,8 C
10.01.2013 00:06 5,5 C 90 % 1011,1 hPa 0,0 l/m 7,2 km/h (2 Bft) W-NW 292 4,0 C 3,9 C
10.01.2013 00:11 5,4 C 90 % 1011,1 hPa 0,0 l/m 9,0 km/h (2 Bft) W-NW 292 3,9 C 3,4 C
10.01.2013 00:16 5,3 C 90 % 1011,1 hPa 0,0 l/m 18,4 km/h (3 Bft) NW 315 3,8 C 1,6 C
10.01.2013 00:21 5,3 C 90 % 1011,1 hPa 0,0 l/m 15,8 km/h (3 Bft) W-NW 292 3,8 C 2,0 C
10.01.2013 00:26 5,3 C 90 % 1011,1 hPa 0,0 l/m 8,3 km/h (2 Bft) W-NW 292 3,8 C 3,4 C
10.01.2013 00:31 5,3 C 90 % 1010,9 hPa 0,0 l/m 6,8 km/h (2 Bft) W 270 3,8 C 3,8 C
10.01.2013 00:36 5,3 C 90 % 1010,9 hPa 0,0 l/m 10,8 km/h (2 Bft) W-NW 292 3,8 C 2,9 C
10.01.2013 00:41 5,3 C 90 % 1010,9 hPa 0,0 l/m 20,5 km/h (4 Bft) W-NW 292 3,8 C 1,4 C
10.01.2013 00:46 5,3 C 90 % 1010,9 hPa 0,0 l/m 10,1 km/h (2 Bft) W-NW 292 3,8 C 3,0 C
10.01.2013 00:51 5,3 C 90 % 1010,9 hPa 0,0 l/m 10,1 km/h (2 Bft) W-NW 292 3,8 C 3,0 C
10.01.2013 00:56 5,2 C 90 % 1010,9 hPa 0,0 l/m 6,1 km/h (2 Bft) W-SW 247 3,7 C 3,9 C
10.01.2013 01:01 5,1 C 90 % 1010,9 hPa 0,0 l/m 9,7 km/h (2 Bft) W 270 3,6 C 2,8 C
10.01.2013 01:06 5,1 C 90 % 1010,9 hPa 0,0 l/m 16,6 km/h (3 Bft) W 270 3,6 C 1,6 C
10.01.2013 01:11 5,0 C 90 % 1010,8 hPa 0,0 l/m 18,0 km/h (3 Bft) W 270 3,5 C 1,3 C
10.01.2013 01:16 5,0 C 90 % 1010,7 hPa 0,0 l/m 10,8 km/h (2 Bft) W-NW 292 3,5 C 2,5 C
10.01.2013 01:21 5,0 C 90 % 1010,6 hPa 0,0 l/m 11,5 km/h (2 Bft) W-NW 292 3,5 C 2,4 C
10.01.2013 01:26 5,0 C 90 % 1010,7 hPa 0,0 l/m 9,4 km/h (2 Bft) W 270 3,5 C 2,8 C
10.01.2013 01:31 5,0 C 90 % 1010,8 hPa 0,0 l/m 23,4 km/h (4 Bft) W-NW 292 3,5 C 0,7 C
10.01.2013 01:36 5,1 C 90 % 1010,6 hPa 0,0 l/m 14,0 km/h (3 Bft) W-NW 292 3,6 C 2,0 C
10.01.2013 01:41 5,1 C 90 % 1010,6 hPa 0,0 l/m 13,3 km/h (3 Bft) SW 225 3,6 C 2,1 C
10.01.2013 01:46 5,1 C 90 % 1010,7 hPa 0,0 l/m 18,0 km/h (3 Bft) NW 315 3,6 C 1,4 C
10.01.2013 01:51 5,1 C 90 % 1010,7 hPa 0,0 l/m 18,4 km/h (3 Bft) W 270 3,6 C 1,4 C
10.01.2013 01:56 4,9 C 90 % 1010,8 hPa 0,0 l/m 7,6 km/h (2 Bft) W-NW 292 3,4 C 3,1 C
10.01.2013 02:01 4,9 C 90 % 1010,8 hPa 0,0 l/m 15,5 km/h (3 Bft) W 270 3,4 C 1,5 C
10.01.2013 02:06 4,8 C 90 % 1010,5 hPa 0,0 l/m 13,3 km/h (3 Bft) NW 315 3,3 C 1,8 C
10.01.2013 02:11 4,8 C 90 % 1010,5 hPa 0,0 l/m 16,6 km/h (3 Bft) W-NW 292 3,3 C 1,3 C
10.01.2013 02:16 4,7 C 90 % 1010,6 hPa 0,0 l/m 22,7 km/h (4 Bft) W-NW 292 3,2 C 0,4 C
10.01.2013 02:21 4,6 C 90 % 1010,5 hPa 0,0 l/m 10,8 km/h (2 Bft) N-NW 337 3,1 C 2,0 C
10.01.2013 02:26 4,7 C 90 % 1010,5 hPa 0,0 l/m 9,4 km/h (2 Bft) W 270 3,2 C 2,4 C
10.01.2013 02:31 4,6 C 90 % 1010,5 hPa 0,0 l/m 16,2 km/h (3 Bft) W 270 3,1 C 1,1 C
10.01.2013 02:36 4,7 C 90 % 1010,3 hPa 0,0 l/m 19,1 km/h (3 Bft) W-NW 292 3,2 C 0,8 C
10.01.2013 02:41 4,7 C 90 % 1010,4 hPa 0,0 l/m 11,9 km/h (2 Bft) W-NW 292 3,2 C 1,9 C
10.01.2013 02:46 4,7 C 90 % 1010,4 hPa 0,0 l/m 13,0 km/h (3 Bft) W 270 3,2 C 1,7 C
10.01.2013 02:51 4,7 C 90 % 1010,3 hPa 0,0 l/m 12,6 km/h (3 Bft) W 270 3,2 C 1,8 C
10.01.2013 02:56 4,7 C 90 % 1010,3 hPa 0,0 l/m 14,8 km/h (3 Bft) NW 315 3,2 C 1,4 C
10.01.2013 03:01 4,7 C 90 % 1010,3 hPa 0,0 l/m 17,3 km/h (3 Bft) NW 315 3,2 C 1,0 C
10.01.2013 03:06 4,6 C 90 % 1010,2 hPa 0,0 l/m 7,2 km/h (2 Bft) W-SW 247 3,1 C 2,9 C
10.01.2013 03:11 4,6 C 90 % 1010,1 hPa 0,0 l/m 10,4 km/h (2 Bft) W-NW 292 3,1 C 2,1 C
10.01.2013 03:16 4,6 C 90 % 1010,2 hPa 0,0 l/m 19,1 km/h (3 Bft) W-SW 247 3,1 C 0,7 C
10.01.2013 03:21 4,6 C 90 % 1010,1 hPa 0,0 l/m 8,3 km/h (2 Bft) W 270 3,1 C 2,6 C
10.01.2013 03:26 4,6 C 90 % 1010,0 hPa 0,0 l/m 18,0 km/h (3 Bft) W-NW 292 3,1 C 0,8 C
10.01.2013 03:31 4,5 C 90 % 1009,9 hPa 0,0 l/m 12,6 km/h (3 Bft) W-SW 247 3,0 C 1,5 C
10.01.2013 03:36 4,5 C 90 % 1010,0 hPa 0,0 l/m 13,3 km/h (3 Bft) W 270 3,0 C 1,4 C
10.01.2013 03:41 4,5 C 90 % 1009,9 hPa 0,0 l/m 10,1 km/h (2 Bft) W 270 3,0 C 2,0 C
10.01.2013 03:46 4,4 C 90 % 1009,9 hPa 0,0 l/m 5,8 km/h (2 Bft) NW 315 2,9 C 3,1 C
10.01.2013 03:51 4,4 C 90 % 1009,8 hPa 0,0 l/m 10,1 km/h (2 Bft) NW 315 2,9 C 1,9 C
10.01.2013 03:56 4,4 C 90 % 1009,5 hPa 0,0 l/m 11,5 km/h (2 Bft) W-NW 292 2,9 C 1,6 C
10.01.2013 04:01 4,4 C 90 % 1009,6 hPa 0,0 l/m 13,3 km/h (3 Bft) SW 225 2,9 C 1,3 C
10.01.2013 04:06 4,4 C 90 % 1009,6 hPa 0,0 l/m 9,4 km/h (2 Bft) W-NW 292 2,9 C 2,1 C
10.01.2013 04:11 4,3 C 90 % 1009,5 hPa 0,0 l/m 10,4 km/h (2 Bft) W-NW 292 2,8 C 1,7 C
10.01.2013 04:16 4,2 C 90 % 1009,4 hPa 0,0 l/m 12,6 km/h (3 Bft) W-NW 292 2,7 C 1,2 C
10.01.2013 04:21 4,2 C 90 % 1009,3 hPa 0,0 l/m 4,0 km/h (1 Bft) W-NW 292 2,7 C 4,2 C
10.01.2013 04:26 4,2 C 90 % 1009,4 hPa 0,0 l/m 17,3 km/h (3 Bft) W-NW 292 2,7 C 0,4 C
10.01.2013 04:31 4,1 C 90 % 1009,4 hPa 0,0 l/m 19,1 km/h (3 Bft) W-NW 292 2,6 C 0,0 C
10.01.2013 04:36 4,1 C 90 % 1009,4 hPa 0,0 l/m 9,0 km/h (2 Bft) NW 315 2,6 C 1,8 C
10.01.2013 04:41 4,1 C 90 % 1009,3 hPa 0,0 l/m 11,2 km/h (2 Bft) W 270 2,6 C 1,3 C
10.01.2013 04:46 4,1 C 90 % 1009,2 hPa 0,0 l/m 15,8 km/h (3 Bft) W 270 2,6 C 0,5 C
10.01.2013 04:51 4,2 C 90 % 1009,2 hPa 0,0 l/m 9,7 km/h (2 Bft) W-SW 247 2,7 C 1,8 C
10.01.2013 04:56 4,2 C 90 % 1009,2 hPa 0,0 l/m 14,0 km/h (3 Bft) NW 315 2,7 C 0,9 C
10.01.2013 05:01 4,1 C 90 % 1008,9 hPa 0,0 l/m 10,1 km/h (2 Bft) SW 225 2,6 C 1,6 C
10.01.2013 05:06 4,1 C 90 % 1009,1 hPa 0,0 l/m 13,3 km/h (3 Bft) W 270 2,6 C 0,9 C
10.01.2013 05:11 4,1 C 90 % 1009,0 hPa 0,0 l/m 15,5 km/h (3 Bft) W 270 2,6 C 0,6 C
10.01.2013 05:16 3,9 C 90 % 1008,8 hPa 0,0 l/m 8,3 km/h (2 Bft) W-SW 247 2,4 C 1,8 C
10.01.2013 05:21 3,9 C 90 % 1008,9 hPa 0,0 l/m 5,0 km/h (1 Bft) W 270 2,4 C 2,8 C
10.01.2013 05:26 4,0 C 90 % 1008,9 hPa 0,0 l/m 15,8 km/h (3 Bft) W 270 2,5 C 0,4 C
10.01.2013 05:31 4,1 C 90 % 1008,8 hPa 0,0 l/m 6,5 km/h (2 Bft) W-SW 247 2,6 C 2,5 C
10.01.2013 05:36 4,1 C 90 % 1008,9 hPa 0,0 l/m 14,0 km/h (3 Bft) NW 315 2,6 C 0,8 C
10.01.2013 05:41 4,2 C 90 % 1009,0 hPa 0,0 l/m 16,9 km/h (3 Bft) W-NW 292 2,7 C 0,5 C
10.01.2013 05:46 4,2 C 90 % 1008,8 hPa 0,0 l/m 15,8 km/h (3 Bft) W 270 2,7 C 0,6 C
10.01.2013 05:51 4,3 C 90 % 1008,8 hPa 0,0 l/m 19,4 km/h (3 Bft) W-NW 292 2,8 C 0,3 C
10.01.2013 05:56 4,3 C 90 % 1008,8 hPa 0,0 l/m 12,2 km/h (2 Bft) W 270 2,8 C 1,4 C
10.01.2013 06:01 4,3 C 90 % 1008,7 hPa 0,0 l/m 7,6 km/h (2 Bft) W 270 2,8 C 2,4 C
10.01.2013 06:06 4,4 C 90 % 1008,6 hPa 0,0 l/m 10,8 km/h (2 Bft) W-SW 247 2,9 C 1,8 C
10.01.2013 06:11 4,4 C 90 % 1008,5 hPa 0,0 l/m 11,2 km/h (2 Bft) NW 315 2,9 C 1,7 C
10.01.2013 06:16 4,4 C 90 % 1008,6 hPa 0,0 l/m 17,3 km/h (3 Bft) W-SW 247 2,9 C 0,7 C
10.01.2013 06:21 4,4 C 90 % 1008,7 hPa 0,0 l/m 11,5 km/h (2 Bft) W 270 2,9 C 1,6 C
10.01.2013 06:26 4,4 C 90 % 1008,7 hPa 0,0 l/m 10,1 km/h (2 Bft) W 270 2,9 C 1,9 C
10.01.2013 06:31 4,4 C 90 % 1008,3 hPa 0,0 l/m 16,6 km/h (3 Bft) W-SW 247 2,9 C 0,8 C
10.01.2013 06:36 4,4 C 90 % 1008,5 hPa 0,0 l/m 11,2 km/h (2 Bft) W-SW 247 2,9 C 1,7 C
10.01.2013 06:41 4,4 C 90 % 1008,4 hPa 0,0 l/m 14,0 km/h (3 Bft) N-NW 337 2,9 C 1,2 C
10.01.2013 06:46 4,4 C 90 % 1008,3 hPa 0,0 l/m 12,2 km/h (2 Bft) W-SW 247 2,9 C 1,5 C
10.01.2013 06:51 4,5 C 90 % 1008,3 hPa 0,0 l/m 4,0 km/h (1 Bft) W 270 3,0 C 4,5 C
10.01.2013 06:56 4,5 C 90 % 1008,3 hPa 0,0 l/m 14,8 km/h (3 Bft) W-NW 292 3,0 C 1,2 C
10.01.2013 07:01 4,5 C 90 % 1008,1 hPa 0,0 l/m 7,2 km/h (2 Bft) W-SW 247 3,0 C 2,8 C
10.01.2013 07:06 4,5 C 90 % 1008,2 hPa 0,0 l/m 13,7 km/h (3 Bft) W-NW 292 3,0 C 1,3 C
10.01.2013 07:11 4,5 C 90 % 1008,3 hPa 0,0 l/m 7,6 km/h (2 Bft) W 270 3,0 C 2,7 C
10.01.2013 07:16 4,5 C 90 % 1008,2 hPa 0,0 l/m 22,3 km/h (4 Bft) W-NW 292 3,0 C 0,2 C
10.01.2013 07:21 4,5 C 90 % 1008,0 hPa 0,0 l/m 18,7 km/h (3 Bft) W-NW 292 3,0 C 0,6 C
10.01.2013 07:26 4,6 C 89 % 1008,1 hPa 0,0 l/m 9,4 km/h (2 Bft) W 270 2,9 C 2,3 C
10.01.2013 07:31 4,6 C 89 % 1008,1 hPa 0,0 l/m 27,7 km/h (4 Bft) W-SW 247 2,9 C -0,3 C
10.01.2013 07:36 4,6 C 89 % 1008,0 hPa 0,0 l/m 9,4 km/h (2 Bft) W-SW 247 2,9 C 2,3 C
10.01.2013 07:41 4,6 C 89 % 1008,0 hPa 0,0 l/m 9,4 km/h (2 Bft) W-NW 292 2,9 C 2,3 C
10.01.2013 07:46 4,6 C 89 % 1007,9 hPa 0,0 l/m 11,2 km/h (2 Bft) W-NW 292 2,9 C 1,9 C
10.01.2013 07:51 4,6 C 89 % 1007,8 hPa 0,0 l/m 15,8 km/h (3 Bft) W-NW 292 2,9 C 1,1 C
10.01.2013 07:56 4,7 C 89 % 1008,0 hPa 0,0 l/m 12,2 km/h (2 Bft) W-NW 292 3,0 C 1,9 C
10.01.2013 08:01 4,7 C 89 % 1007,9 hPa 0,0 l/m 9,4 km/h (2 Bft) W-SW 247 3,0 C 2,4 C
10.01.2013 08:06 4,6 C 89 % 1007,9 hPa 0,0 l/m 11,2 km/h (2 Bft) NW 315 2,9 C 1,9 C
10.01.2013 08:11 4,6 C 89 % 1008,0 hPa 0,0 l/m 5,8 km/h (2 Bft) W 270 2,9 C 3,3 C
10.01.2013 08:16 4,6 C 89 % 1007,9 hPa 0,0 l/m 12,2 km/h (2 Bft) W-NW 292 2,9 C 1,7 C
10.01.2013 08:21 4,6 C 89 % 1008,0 hPa 0,0 l/m 21,6 km/h (4 Bft) W-NW 292 2,9 C 0,4 C
10.01.2013 08:26 4,5 C 89 % 1008,0 hPa 0,0 l/m 15,5 km/h (3 Bft) NW 315 2,8 C 1,1 C
10.01.2013 08:31 4,5 C 89 % 1007,9 hPa 0,0 l/m 10,1 km/h (2 Bft) W 270 2,8 C 2,0 C
10.01.2013 08:36 4,5 C 90 % 1008,0 hPa 0,0 l/m 14,8 km/h (3 Bft) W 270 3,0 C 1,2 C
10.01.2013 08:41 4,5 C 90 % 1007,8 hPa 0,0 l/m 14,8 km/h (3 Bft) W 270 3,0 C 1,2 C
10.01.2013 08:46 4,4 C 90 % 1007,8 hPa 0,0 l/m 22,0 km/h (4 Bft) W 270 2,9 C 0,1 C
10.01.2013 08:51 4,5 C 90 % 1007,7 hPa 0,0 l/m 10,4 km/h (2 Bft) W 270 3,0 C 2,0 C
10.01.2013 08:56 4,5 C 90 % 1007,6 hPa 0,0 l/m 12,6 km/h (3 Bft) NW 315 3,0 C 1,5 C
10.01.2013 09:01 4,5 C 89 % 1007,5 hPa 0,0 l/m 10,1 km/h (2 Bft) NW 315 2,8 C 2,0 C
10.01.2013 09:06 4,5 C 89 % 1007,5 hPa 0,0 l/m 9,7 km/h (2 Bft) W 270 2,8 C 2,1 C
10.01.2013 09:11 4,5 C 89 % 1007,4 hPa 0,0 l/m 5,4 km/h (1 Bft) W-NW 292 2,8 C 3,4 C
10.01.2013 09:16 4,5 C 89 % 1007,3 hPa 0,0 l/m 22,7 km/h (4 Bft) W 270 2,8 C 0,1 C
10.01.2013 09:21 4,5 C 89 % 1007,3 hPa 0,0 l/m 8,3 km/h (2 Bft) W-NW 292 2,8 C 2,5 C
10.01.2013 09:26 4,5 C 89 % 1007,3 hPa 0,0 l/m 25,2 km/h (4 Bft) W-SW 247 2,8 C -0,1 C
10.01.2013 09:31 4,5 C 89 % 1007,3 hPa 0,0 l/m 9,7 km/h (2 Bft) W 270 2,8 C 2,1 C
10.01.2013 09:36 4,6 C 89 % 1007,3 hPa 0,0 l/m 21,6 km/h (4 Bft) W-NW 292 2,9 C 0,4 C
10.01.2013 09:41 4,6 C 89 % 1007,3 hPa 0,0 l/m 29,2 km/h (5 Bft) N-NW 337 2,9 C -0,4 C
10.01.2013 09:46 4,6 C 89 % 1007,1 hPa 0,0 l/m 8,3 km/h (2 Bft) W 270 2,9 C 2,6 C
10.01.2013 09:51 4,6 C 89 % 1007,2 hPa 0,0 l/m 26,3 km/h (4 Bft) W 270 2,9 C -0,1 C
10.01.2013 09:56 4,6 C 89 % 1007,1 hPa 0,0 l/m 10,1 km/h (2 Bft) SW 225 2,9 C 2,2 C
10.01.2013 10:01 4,6 C 89 % 1007,1 hPa 0,0 l/m 4,7 km/h (1 Bft) W-SW 247 2,9 C 3,8 C
10.01.2013 10:06 4,6 C 89 % 1007,0 hPa 0,0 l/m 27,0 km/h (4 Bft) NW 315 2,9 C -0,2 C
10.01.2013 10:11 4,6 C 88 % 1007,3 hPa 0,0 l/m 10,8 km/h (2 Bft) SW 225 2,8 C 2,0 C
10.01.2013 10:16 4,6 C 88 % 1007,3 hPa 0,0 l/m 10,1 km/h (2 Bft) W 270 2,8 C 2,2 C
10.01.2013 10:21 4,7 C 88 % 1007,3 hPa 0,0 l/m 17,3 km/h (3 Bft) W-NW 292 2,9 C 1,0 C
10.01.2013 10:26 4,7 C 88 % 1007,2 hPa 0,0 l/m 17,3 km/h (3 Bft) W-SW 247 2,9 C 1,0 C
10.01.2013 10:31 4,7 C 88 % 1007,3 hPa 0,0 l/m 6,1 km/h (2 Bft) SW 225 2,9 C 3,3 C
10.01.2013 10:36 4,7 C 88 % 1007,2 hPa 0,0 l/m 14,8 km/h (3 Bft) W-SW 247 2,9 C 1,4 C
10.01.2013 10:41 4,7 C 89 % 1007,1 hPa 0,0 l/m 17,6 km/h (3 Bft) W 270 3,0 C 1,0 C
10.01.2013 10:46 4,7 C 89 % 1007,0 hPa 0,0 l/m 15,5 km/h (3 Bft) W-NW 292 3,0 C 1,3 C
10.01.2013 10:51 4,6 C 89 % 1007,0 hPa 0,5 l/m 13,3 km/h (3 Bft) W-SW 247 2,9 C 1,5 C
10.01.2013 10:56 4,6 C 89 % 1007,0 hPa 0,0 l/m 11,2 km/h (2 Bft) W 270 2,9 C 1,9 C
10.01.2013 11:01 4,6 C 89 % 1006,9 hPa 0,0 l/m 6,5 km/h (2 Bft) W 270 2,9 C 3,1 C
10.01.2013 11:06 4,6 C 90 % 1006,9 hPa 0,0 l/m 10,1 km/h (2 Bft) W-NW 292 3,1 C 2,2 C
10.01.2013 11:11 4,6 C 90 % 1006,9 hPa 0,0 l/m 16,6 km/h (3 Bft) W 270 3,1 C 1,0 C
10.01.2013 11:16 4,6 C 90 % 1006,9 hPa 0,0 l/m 24,8 km/h (4 Bft) W-NW 292 3,1 C 0,0 C
10.01.2013 11:21 4,6 C 90 % 1006,7 hPa 0,0 l/m 16,2 km/h (3 Bft) W-NW 292 3,1 C 1,1 C
10.01.2013 11:26 4,6 C 90 % 1006,7 hPa 0,0 l/m 15,8 km/h (3 Bft) W 270 3,1 C 1,1 C
10.01.2013 11:31 4,6 C 90 % 1006,8 hPa 0,0 l/m 18,0 km/h (3 Bft) W-NW 292 3,1 C 0,8 C
10.01.2013 11:36 4,6 C 90 % 1006,7 hPa 0,5 l/m 8,6 km/h (2 Bft) N-NW 337 3,1 C 2,5 C
10.01.2013 11:41 4,4 C 90 % 1006,9 hPa 0,0 l/m 14,8 km/h (3 Bft) O-NO 67 2,9 C 1,0 C
10.01.2013 11:46 3,2 C 88 % 1007,0 hPa 0,5 l/m 14,0 km/h (3 Bft) N 360 1,4 C -0,3 C
10.01.2013 11:51 2,8 C 89 % 1007,1 hPa 0,0 l/m 15,5 km/h (3 Bft) N 360 1,2 C -1,0 C
10.01.2013 11:56 2,6 C 90 % 1007,1 hPa 0,0 l/m 7,6 km/h (2 Bft) NO 45 1,1 C 0,4 C
10.01.2013 12:01 2,5 C 90 % 1007,0 hPa 0,0 l/m 5,4 km/h (1 Bft) N-NO 22 1,0 C 1,1 C
10.01.2013 12:06 2,5 C 91 % 1007,0 hPa 0,0 l/m 11,2 km/h (2 Bft) N 360 1,2 C -0,6 C
10.01.2013 12:11 2,4 C 91 % 1006,9 hPa 0,0 l/m 8,3 km/h (2 Bft) N 360 1,1 C -0,0 C
10.01.2013 12:16 2,4 C 91 % 1006,9 hPa 0,0 l/m 4,0 km/h (1 Bft) N-NO 22 1,1 C 2,4 C
10.01.2013 12:21 2,5 C 92 % 1006,9 hPa 0,0 l/m 7,2 km/h (2 Bft) N-NO 22 1,3 C 0,4 C
10.01.2013 12:26 2,5 C 92 % 1006,8 hPa 0,0 l/m 12,6 km/h (3 Bft) N-NO 22 1,3 C -0,9 C
10.01.2013 12:31 2,5 C 92 % 1006,8 hPa 0,5 l/m 6,8 km/h (2 Bft) W-NW 292 1,3 C 0,6 C
10.01.2013 12:36 2,5 C 92 % 1006,8 hPa 0,0 l/m 13,0 km/h (3 Bft) NO 45 1,3 C -1,0 C
10.01.2013 12:41 2,5 C 92 % 1006,8 hPa 0,0 l/m 14,0 km/h (3 Bft) N 360 1,3 C -1,2 C
10.01.2013 12:46 2,4 C 92 % 1006,9 hPa 0,0 l/m 13,0 km/h (3 Bft) W-NW 292 1,2 C -1,1 C
10.01.2013 12:51 2,4 C 92 % 1006,7 hPa 0,0 l/m 6,5 km/h (2 Bft) N-NO 22 1,2 C 0,6 C
10.01.2013 12:56 2,3 C 92 % 1006,7 hPa 0,0 l/m 9,7 km/h (2 Bft) NW 315 1,1 C -0,5 C
10.01.2013 13:01 2,3 C 92 % 1006,6 hPa 0,0 l/m 6,1 km/h (2 Bft) N-NO 22 1,1 C 0,6 C
10.01.2013 13:06 2,3 C 92 % 1006,6 hPa 0,0 l/m 6,1 km/h (2 Bft) NO 45 1,1 C 0,6 C
10.01.2013 13:11 2,3 C 92 % 1006,7 hPa 0,0 l/m 5,8 km/h (2 Bft) N 360 1,1 C 0,7 C
10.01.2013 13:16 2,3 C 92 % 1006,7 hPa 0,0 l/m 5,8 km/h (2 Bft) N 360 1,1 C 0,7 C
10.01.2013 13:21 2,4 C 92 % 1006,6 hPa 0,0 l/m 7,9 km/h (2 Bft) N-NW 337 1,2 C 0,1 C
10.01.2013 13:26 2,4 C 92 % 1006,7 hPa 0,0 l/m 7,9 km/h (2 Bft) N 360 1,2 C 0,1 C
10.01.2013 13:31 2,3 C 92 % 1006,6 hPa 0,0 l/m 3,6 km/h (1 Bft) N 360 1,1 C 2,3 C
10.01.2013 13:36 2,4 C 92 % 1006,6 hPa 0,0 l/m 5,8 km/h (2 Bft) N-NO 22 1,2 C 0,8 C
10.01.2013 13:41 2,4 C 92 % 1006,6 hPa 0,0 l/m 10,1 km/h (2 Bft) N-NW 337 1,2 C -0,5 C
10.01.2013 13:46 2,4 C 92 % 1006,6 hPa 0,0 l/m 8,3 km/h (2 Bft) NW 315 1,2 C -0,0 C
10.01.2013 13:51 2,5 C 92 % 1006,6 hPa 0,0 l/m 5,0 km/h (1 Bft) N 360 1,3 C 1,2 C
10.01.2013 13:56 2,5 C 92 % 1006,5 hPa 0,0 l/m 8,6 km/h (2 Bft) N 360 1,3 C 0,0 C
10.01.2013 14:01 2,5 C 92 % 1006,5 hPa 0,0 l/m 17,3 km/h (3 Bft) N-NW 337 1,3 C -1,7 C
10.01.2013 14:06 2,5 C 92 % 1006,6 hPa 0,0 l/m 4,0 km/h (1 Bft) N-NW 337 1,3 C 2,5 C
10.01.2013 14:11 2,5 C 92 % 1006,6 hPa 0,0 l/m 10,8 km/h (2 Bft) N-NW 337 1,3 C -0,5 C
10.01.2013 14:16 2,6 C 92 % 1006,6 hPa 0,0 l/m 6,5 km/h (2 Bft) NW 315 1,4 C 0,8 C
10.01.2013 14:21 2,6 C 92 % 1006,6 hPa 0,0 l/m 7,6 km/h (2 Bft) N-NO 22 1,4 C 0,4 C
10.01.2013 14:26 2,6 C 91 % 1006,7 hPa 0,0 l/m 11,2 km/h (2 Bft) N 360 1,3 C -0,5 C
10.01.2013 14:31 2,6 C 90 % 1006,8 hPa 0,0 l/m 16,6 km/h (3 Bft) N-NO 22 1,1 C -1,5 C
10.01.2013 14:36 2,6 C 89 % 1006,9 hPa 0,0 l/m 10,4 km/h (2 Bft) N-NO 22 1,0 C -0,3 C
10.01.2013 14:41 2,6 C 89 % 1006,8 hPa 0,0 l/m 9,7 km/h (2 Bft) N-NO 22 1,0 C -0,1 C
10.01.2013 14:46 2,6 C 89 % 1006,8 hPa 0,0 l/m 7,6 km/h (2 Bft) N-NO 22 1,0 C 0,4 C
10.01.2013 14:51 2,6 C 89 % 1006,9 hPa 0,0 l/m 5,4 km/h (1 Bft) N-NW 337 1,0 C 1,2 C
10.01.2013 14:56 2,6 C 88 % 1006,8 hPa 0,0 l/m 11,5 km/h (2 Bft) N 360 0,8 C -0,5 C
10.01.2013 15:01 2,6 C 88 % 1006,8 hPa 0,0 l/m 6,5 km/h (2 Bft) N 360 0,8 C 0,8 C
10.01.2013 15:06 2,6 C 88 % 1006,9 hPa 0,0 l/m 11,5 km/h (2 Bft) N-NO 22 0,8 C -0,5 C
10.01.2013 15:11 2,5 C 88 % 1006,9 hPa 0,0 l/m 9,7 km/h (2 Bft) N-NO 22 0,7 C -0,3 C
10.01.2013 15:16 2,5 C 87 % 1006,9 hPa 0,0 l/m 14,4 km/h (3 Bft) N-NO 22 0,6 C -1,2 C
10.01.2013 15:21 2,4 C 86 % 1007,0 hPa 0,0 l/m 13,7 km/h (3 Bft) N 360 0,3 C -1,2 C
10.01.2013 15:26 2,2 C 87 % 1006,9 hPa 0,0 l/m 10,4 km/h (2 Bft) NO 45 0,3 C -0,8 C
10.01.2013 15:31 2,1 C 88 % 1006,9 hPa 0,0 l/m 11,5 km/h (2 Bft) N 360 0,3 C -1,2 C
10.01.2013 15:36 2,1 C 88 % 1006,9 hPa 0,0 l/m 13,0 km/h (3 Bft) N-NO 22 0,3 C -1,5 C
10.01.2013 15:41 2,1 C 88 % 1007,0 hPa 0,0 l/m 13,7 km/h (3 Bft) N 360 0,3 C -1,6 C
10.01.2013 15:46 1,9 C 88 % 1007,1 hPa 0,5 l/m 14,0 km/h (3 Bft) N-NO 22 0,1 C -1,9 C
10.01.2013 15:51 1,9 C 88 % 1007,1 hPa 0,0 l/m 10,1 km/h (2 Bft) N-NO 22 0,1 C -1,1 C
10.01.2013 15:56 1,9 C 88 % 1007,1 hPa 0,0 l/m 13,0 km/h (3 Bft) N-NO 22 0,1 C -1,7 C
10.01.2013 16:01 1,8 C 87 % 1007,2 hPa 0,0 l/m 15,8 km/h (3 Bft) N 360 -0,1 C -2,3 C
10.01.2013 16:06 1,8 C 86 % 1007,3 hPa 0,0 l/m 14,8 km/h (3 Bft) N 360 -0,3 C -2,2 C
10.01.2013 16:11 1,6 C 86 % 1007,3 hPa 0,0 l/m 20,2 km/h (4 Bft) N-NO 22 -0,5 C -3,3 C
10.01.2013 16:16 1,6 C 86 % 1007,3 hPa 0,0 l/m 14,4 km/h (3 Bft) N 360 -0,5 C -2,3 C
10.01.2013 16:21 1,6 C 86 % 1007,4 hPa 0,0 l/m 11,5 km/h (2 Bft) N-NO 22 -0,5 C -1,8 C
10.01.2013 16:26 1,6 C 87 % 1007,4 hPa 0,0 l/m 10,1 km/h (2 Bft) N-NO 22 -0,3 C -1,4 C
10.01.2013 16:31 1,5 C 87 % 1007,4 hPa 0,0 l/m 10,8 km/h (2 Bft) N-NO 22 -0,4 C -1,7 C
10.01.2013 16:36 1,5 C 88 % 1007,4 hPa 0,0 l/m 13,0 km/h (3 Bft) N-NO 22 -0,3 C -2,2 C
10.01.2013 16:41 1,4 C 88 % 1007,5 hPa 0,0 l/m 14,4 km/h (3 Bft) N-NO 22 -0,4 C -2,6 C
10.01.2013 16:46 1,4 C 88 % 1007,5 hPa 0,0 l/m 9,7 km/h (2 Bft) NW 315 -0,4 C -1,6 C
10.01.2013 16:51 1,3 C 89 % 1007,4 hPa 0,0 l/m 9,0 km/h (2 Bft) N 360 -0,3 C -1,5 C
10.01.2013 16:56 1,3 C 89 % 1007,5 hPa 0,0 l/m 14,4 km/h (3 Bft) N-NO 22 -0,3 C -2,7 C
10.01.2013 17:01 1,2 C 89 % 1007,5 hPa 0,0 l/m 13,3 km/h (3 Bft) N-NO 22 -0,4 C -2,6 C
10.01.2013 17:06 1,1 C 89 % 1007,4 hPa 0,0 l/m 16,9 km/h (3 Bft) N 360 -0,5 C -3,4 C
10.01.2013 17:11 1,0 C 88 % 1007,5 hPa 0,0 l/m 10,1 km/h (2 Bft) N 360 -0,8 C -2,1 C
10.01.2013 17:16 1,0 C 88 % 1007,6 hPa 0,0 l/m 17,6 km/h (3 Bft) N-NW 337 -0,8 C -3,6 C
10.01.2013 17:21 1,0 C 88 % 1007,7 hPa 0,0 l/m 11,9 km/h (2 Bft) N 360 -0,8 C -2,6 C
10.01.2013 17:26 1,0 C 88 % 1007,7 hPa 0,0 l/m 10,1 km/h (2 Bft) N 360 -0,8 C -2,1 C
10.01.2013 17:31 1,0 C 88 % 1007,7 hPa 0,0 l/m 13,7 km/h (3 Bft) N-NW 337 -0,8 C -2,9 C
10.01.2013 17:36 0,9 C 88 % 1007,7 hPa 0,0 l/m 12,2 km/h (2 Bft) N 360 -0,9 C -2,8 C
10.01.2013 17:41 0,9 C 89 % 1007,7 hPa 0,0 l/m 13,7 km/h (3 Bft) N-NO 22 -0,7 C -3,1 C
10.01.2013 17:46 0,9 C 89 % 1007,8 hPa 0,0 l/m 14,8 km/h (3 Bft) N-NO 22 -0,7 C -3,3 C
10.01.2013 17:51 0,8 C 90 % 1007,9 hPa 0,0 l/m 8,6 km/h (2 Bft) N-NO 22 -0,6 C -2,0 C
10.01.2013 17:56 0,8 C 90 % 1008,0 hPa 0,0 l/m 10,1 km/h (2 Bft) N 360 -0,6 C -2,4 C
10.01.2013 18:01 0,8 C 90 % 1008,1 hPa 0,0 l/m 5,4 km/h (1 Bft) N-NO 22 -0,6 C -0,9 C
10.01.2013 18:06 0,8 C 90 % 1008,1 hPa 0,0 l/m 5,8 km/h (2 Bft) N-NW 337 -0,6 C -1,0 C
10.01.2013 18:11 0,8 C 90 % 1008,1 hPa 0,0 l/m 11,9 km/h (2 Bft) N-NO 22 -0,6 C -2,8 C
10.01.2013 18:16 0,8 C 89 % 1008,1 hPa 0,0 l/m 9,7 km/h (2 Bft) N-NO 22 -0,8 C -2,3 C
10.01.2013 18:21 0,8 C 89 % 1008,2 hPa 0,0 l/m 8,6 km/h (2 Bft) N-NO 22 -0,8 C -2,0 C
10.01.2013 18:26 0,7 C 89 % 1008,2 hPa 0,0 l/m 6,5 km/h (2 Bft) N-NO 22 -0,9 C -1,4 C
10.01.2013 18:31 0,7 C 89 % 1008,3 hPa 0,0 l/m 14,0 km/h (3 Bft) N-NO 22 -0,9 C -3,4 C
10.01.2013 18:36 0,8 C 88 % 1008,4 hPa 0,0 l/m 10,1 km/h (2 Bft) N-NO 22 -1,0 C -2,4 C
10.01.2013 18:41 0,7 C 88 % 1008,3 hPa 0,0 l/m 8,3 km/h (2 Bft) N-NO 22 -1,1 C -2,0 C
10.01.2013 18:46 0,7 C 87 % 1008,4 hPa 0,0 l/m 14,8 km/h (3 Bft) N 360 -1,2 C -3,5 C
10.01.2013 18:51 0,6 C 87 % 1008,5 hPa 0,0 l/m 10,1 km/h (2 Bft) N-NO 22 -1,3 C -2,6 C
10.01.2013 18:56 0,6 C 87 % 1008,5 hPa 0,0 l/m 14,0 km/h (3 Bft) N-NO 22 -1,3 C -3,5 C
10.01.2013 19:01 0,6 C 87 % 1008,4 hPa 0,0 l/m 11,9 km/h (2 Bft) N-NO 22 -1,3 C -3,1 C
10.01.2013 19:06 0,6 C 86 % 1008,5 hPa 0,0 l/m 14,8 km/h (3 Bft) N 360 -1,5 C -3,6 C
10.01.2013 19:11 0,5 C 86 % 1008,5 hPa 0,0 l/m 7,9 km/h (2 Bft) NO 45 -1,6 C -2,1 C
10.01.2013 19:16 0,5 C 86 % 1008,4 hPa 0,0 l/m 14,4 km/h (3 Bft) NO 45 -1,6 C -3,7 C
10.01.2013 19:21 0,5 C 86 % 1008,4 hPa 0,0 l/m 9,4 km/h (2 Bft) NO 45 -1,6 C -2,6 C
10.01.2013 19:26 0,5 C 84 % 1008,5 hPa 0,0 l/m 15,5 km/h (3 Bft) NO 45 -1,9 C -3,9 C
10.01.2013 19:31 0,5 C 81 % 1008,5 hPa 0,0 l/m 21,6 km/h (4 Bft) NO 45 -2,4 C -4,8 C
10.01.2013 19:36 0,5 C 79 % 1008,6 hPa 0,0 l/m 12,2 km/h (2 Bft) NO 45 -2,7 C -3,2 C
10.01.2013 19:41 0,5 C 77 % 1008,5 hPa 0,0 l/m 8,6 km/h (2 Bft) NO 45 -3,1 C -2,3 C
10.01.2013 19:46 0,5 C 77 % 1008,7 hPa 0,0 l/m 8,3 km/h (2 Bft) NO 45 -3,1 C -2,2 C
10.01.2013 19:51 0,6 C 78 % 1009,0 hPa 0,0 l/m 10,4 km/h (2 Bft) NO 45 -2,8 C -2,7 C
10.01.2013 19:56 0,6 C 78 % 1008,8 hPa 0,0 l/m 9,4 km/h (2 Bft) NO 45 -2,8 C -2,4 C
10.01.2013 20:01 0,6 C 80 % 1008,8 hPa 0,0 l/m 10,4 km/h (2 Bft) NO 45 -2,4 C -2,7 C
10.01.2013 20:06 0,6 C 80 % 1008,8 hPa 0,0 l/m 9,7 km/h (2 Bft) NO 45 -2,4 C -2,5 C
10.01.2013 20:11 0,6 C 81 % 1008,8 hPa 0,0 l/m 4,7 km/h (1 Bft) NO 45 -2,3 C -0,8 C
10.01.2013 20:16 0,6 C 79 % 1008,8 hPa 0,0 l/m 7,2 km/h (2 Bft) NO 45 -2,6 C -1,8 C
10.01.2013 20:21 0,6 C 79 % 1008,9 hPa 0,0 l/m 9,7 km/h (2 Bft) NO 45 -2,6 C -2,5 C
10.01.2013 20:26 0,6 C 79 % 1008,8 hPa 0,0 l/m 6,1 km/h (2 Bft) NO 45 -2,6 C -1,4 C
10.01.2013 20:31 0,6 C 78 % 1008,7 hPa 0,0 l/m 5,8 km/h (2 Bft) NO 45 -2,8 C -1,3 C
10.01.2013 20:36 0,5 C 78 % 1008,8 hPa 0,0 l/m 10,1 km/h (2 Bft) NO 45 -2,9 C -2,7 C
10.01.2013 20:41 0,5 C 78 % 1008,9 hPa 0,0 l/m 11,9 km/h (2 Bft) NO 45 -2,9 C -3,2 C
10.01.2013 20:46 0,5 C 78 % 1008,9 hPa 0,0 l/m 5,8 km/h (2 Bft) NO 45 -2,9 C -1,4 C
10.01.2013 20:51 0,5 C 77 % 1008,9 hPa 0,0 l/m 10,4 km/h (2 Bft) NO 45 -3,1 C -2,8 C
10.01.2013 20:56 0,5 C 77 % 1008,9 hPa 0,0 l/m 8,6 km/h (2 Bft) NO 45 -3,1 C -2,3 C
10.01.2013 21:01 0,5 C 77 % 1008,9 hPa 0,0 l/m 9,7 km/h (2 Bft) NO 45 -3,1 C -2,6 C
10.01.2013 21:06 0,5 C 78 % 1009,0 hPa 0,0 l/m 8,6 km/h (2 Bft) NO 45 -2,9 C -2,3 C
10.01.2013 21:11 0,5 C 77 % 1009,0 hPa 0,0 l/m 5,4 km/h (1 Bft) NO 45 -3,1 C -1,2 C
10.01.2013 21:16 0,5 C 77 % 1009,0 hPa 0,0 l/m 7,2 km/h (2 Bft) NO 45 -3,1 C -1,9 C
10.01.2013 21:21 0,5 C 78 % 1009,1 hPa 0,0 l/m 5,8 km/h (2 Bft) NO 45 -2,9 C -1,4 C
10.01.2013 21:26 0,5 C 78 % 1009,2 hPa 0,0 l/m 7,2 km/h (2 Bft) NO 45 -2,9 C -1,9 C
10.01.2013 21:31 0,5 C 78 % 1009,2 hPa 0,0 l/m 7,6 km/h (2 Bft) NO 45 -2,9 C -2,0 C
10.01.2013 21:36 0,5 C 77 % 1009,2 hPa 0,0 l/m 8,6 km/h (2 Bft) NO 45 -3,1 C -2,3 C
10.01.2013 21:41 0,6 C 76 % 1009,3 hPa 0,0 l/m 11,5 km/h (2 Bft) NO 45 -3,1 C -3,0 C
10.01.2013 21:46 0,6 C 77 % 1009,3 hPa 0,0 l/m 10,4 km/h (2 Bft) NO 45 -3,0 C -2,7 C
10.01.2013 21:51 0,5 C 78 % 1009,3 hPa 0,0 l/m 6,1 km/h (2 Bft) NO 45 -2,9 C -1,5 C
10.01.2013 21:56 0,5 C 78 % 1009,4 hPa 0,0 l/m 8,6 km/h (2 Bft) NO 45 -2,9 C -2,3 C
10.01.2013 22:01 0,5 C 79 % 1009,3 hPa 0,0 l/m 8,3 km/h (2 Bft) NO 45 -2,7 C -2,2 C
10.01.2013 22:06 0,5 C 79 % 1009,1 hPa 0,0 l/m 2,9 km/h (1 Bft) NO 45 -2,7 C 0,5 C
10.01.2013 22:11 0,4 C 79 % 1009,2 hPa 0,0 l/m 6,8 km/h (2 Bft) NO 45 -2,8 C -1,9 C
10.01.2013 22:16 0,4 C 79 % 1009,4 hPa 0,0 l/m 7,6 km/h (2 Bft) NO 45 -2,8 C -2,1 C
10.01.2013 22:21 0,4 C 80 % 1009,3 hPa 0,0 l/m 13,3 km/h (3 Bft) NO 45 -2,6 C -3,6 C
10.01.2013 22:26 0,4 C 80 % 1009,5 hPa 0,0 l/m 11,9 km/h (2 Bft) NO 45 -2,6 C -3,3 C
10.01.2013 22:31 0,4 C 80 % 1009,5 hPa 0,0 l/m 9,7 km/h (2 Bft) NO 45 -2,6 C -2,8 C
10.01.2013 22:36 0,3 C 80 % 1009,4 hPa 0,0 l/m 8,3 km/h (2 Bft) NO 45 -2,7 C -2,5 C
10.01.2013 22:41 0,3 C 81 % 1009,6 hPa 0,0 l/m 7,6 km/h (2 Bft) NO 45 -2,6 C -2,3 C
10.01.2013 22:46 0,3 C 82 % 1009,6 hPa 0,0 l/m 6,5 km/h (2 Bft) NO 45 -2,4 C -1,9 C
10.01.2013 22:51 0,3 C 82 % 1009,8 hPa 0,0 l/m 12,2 km/h (2 Bft) NO 45 -2,4 C -3,5 C
10.01.2013 22:56 0,2 C 82 % 1009,9 hPa 0,0 l/m 14,0 km/h (3 Bft) NO 45 -2,5 C -4,0 C
10.01.2013 23:01 0,1 C 83 % 1009,7 hPa 0,0 l/m 8,3 km/h (2 Bft) NO 45 -2,4 C -2,7 C
10.01.2013 23:06 -0,1 C 84 % 1009,8 hPa 0,0 l/m 10,8 km/h (2 Bft) NO 45 -2,5 C -3,6 C
10.01.2013 23:11 -0,1 C 85 % 1009,8 hPa 0,0 l/m 8,3 km/h (2 Bft) NO 45 -2,3 C -2,9 C
10.01.2013 23:16 -0,2 C 85 % 1009,8 hPa 0,0 l/m 13,0 km/h (3 Bft) NO 45 -2,4 C -4,3 C
10.01.2013 23:21 -0,2 C 86 % 1009,9 hPa 0,0 l/m 10,4 km/h (2 Bft) NO 45 -2,3 C -3,7 C
10.01.2013 23:26 -0,4 C 86 % 1010,0 hPa 0,0 l/m 7,6 km/h (2 Bft) NO 45 -2,4 C -3,1 C
10.01.2013 23:31 -0,4 C 86 % 1010,1 hPa 0,0 l/m 11,2 km/h (2 Bft) NO 45 -2,4 C -4,1 C
10.01.2013 23:36 -0,5 C 87 % 1010,0 hPa 0,0 l/m 8,3 km/h (2 Bft) NO 45 -2,4 C -3,4 C
10.01.2013 23:41 -0,6 C 88 % 1010,0 hPa 0,0 l/m 7,9 km/h (2 Bft) NO 45 -2,3 C -3,4 C
10.01.2013 23:46 -0,6 C 88 % 1009,9 hPa 0,0 l/m 13,0 km/h (3 Bft) NO 45 -2,3 C -4,8 C
10.01.2013 23:51 -0,6 C 89 % 1010,0 hPa 0,0 l/m 5,8 km/h (2 Bft) NO 45 -2,2 C -2,6 C
10.01.2013 23:56 -0,6 C 89 % 1009,8 hPa 0,0 l/m 4,7 km/h (1 Bft) NO 45 -2,2 C -2,1 C
_ Min-Zeit 23:41 21:41 13:56 - 22:06 - - 21:41 19:31
Minimum _ -0,6 C 76 % 1006,5 hPa - 2,9 km/h (1 Bft) - - -3,1 C -4,8 C
_ Max-Zeit 00:01 12:21 00:01 10:51 09:41 - - 00:01 06:51
Maximum _ 5,5 C 92 % 1011,1 hPa 0,5 l/m 29,2 km/h
N-NW (5 Bft)
- - 4,0 C 4,5 C
Durchschnitt _ 2,9 C 88 % 1008,4 hPa #2,6 l/m 11,6 km/h (2 Bft) NO - 1,1 C -0,0 C
(c) by David Heller